sensor_id;sensor_type;location;lat;lon;timestamp;P1;durP1;ratioP1;P2;durP2;ratioP2
11418;SDS011;32800;44.876;13.880;2022-10-31T00:01:22;4.57;;;3.63;;
11418;SDS011;32800;44.876;13.880;2022-10-31T00:03:56;4.20;;;3.80;;
11418;SDS011;32800;44.876;13.880;2022-10-31T00:06:21;4.70;;;4.07;;
11418;SDS011;32800;44.876;13.880;2022-10-31T00:08:55;5.10;;;4.07;;
11418;SDS011;32800;44.876;13.880;2022-10-31T00:11:24;4.53;;;4.05;;
11418;SDS011;32800;44.876;13.880;2022-10-31T00:13:50;3.90;;;3.60;;
11418;SDS011;32800;44.876;13.880;2022-10-31T00:16:16;4.68;;;4.20;;
11418;SDS011;32800;44.876;13.880;2022-10-31T00:18:43;4.00;;;3.70;;
11418;SDS011;32800;44.876;13.880;2022-10-31T00:21:12;4.15;;;3.75;;
11418;SDS011;32800;44.876;13.880;2022-10-31T00:23:38;4.20;;;3.80;;
11418;SDS011;32800;44.876;13.880;2022-10-31T00:26:03;4.57;;;3.85;;
11418;SDS011;32800;44.876;13.880;2022-10-31T00:28:30;6.32;;;4.38;;
11418;SDS011;32800;44.876;13.880;2022-10-31T00:31:00;4.25;;;3.85;;
11418;SDS011;32800;44.876;13.880;2022-10-31T00:33:26;4.63;;;4.13;;
11418;SDS011;32800;44.876;13.880;2022-10-31T00:35:52;3.90;;;3.50;;
11418;SDS011;32800;44.876;13.880;2022-10-31T00:38:18;4.95;;;4.10;;
11418;SDS011;32800;44.876;13.880;2022-10-31T00:40:43;4.22;;;3.83;;
11418;SDS011;32800;44.876;13.880;2022-10-31T00:43:09;4.20;;;3.80;;
11418;SDS011;32800;44.876;13.880;2022-10-31T00:45:34;4.00;;;3.60;;
11418;SDS011;32800;44.876;13.880;2022-10-31T00:48:00;3.88;;;3.50;;
11418;SDS011;32800;44.876;13.880;2022-10-31T00:50:25;5.32;;;3.70;;
11418;SDS011;32800;44.876;13.880;2022-10-31T00:52:51;3.97;;;3.58;;
11418;SDS011;32800;44.876;13.880;2022-10-31T00:55:16;3.83;;;3.53;;
11418;SDS011;32800;44.876;13.880;2022-10-31T00:57:42;4.75;;;4.25;;
11418;SDS011;32800;44.876;13.880;2022-10-31T01:00:07;4.00;;;3.60;;
11418;SDS011;32800;44.876;13.880;2022-10-31T01:02:34;4.32;;;3.85;;
11418;SDS011;32800;44.876;13.880;2022-10-31T01:04:59;3.95;;;3.55;;
11418;SDS011;32800;44.876;13.880;2022-10-31T01:07:25;4.93;;;3.65;;
11418;SDS011;32800;44.876;13.880;2022-10-31T01:09:50;3.90;;;3.60;;
11418;SDS011;32800;44.876;13.880;2022-10-31T01:12:16;4.03;;;3.60;;
11418;SDS011;32800;44.876;13.880;2022-10-31T01:14:44;4.05;;;3.65;;
11418;SDS011;32800;44.876;13.880;2022-10-31T01:17:11;4.50;;;3.67;;
11418;SDS011;32800;44.876;13.880;2022-10-31T01:19:37;4.18;;;3.78;;
11418;SDS011;32800;44.876;13.880;2022-10-31T01:22:02;4.00;;;3.60;;
11418;SDS011;32800;44.876;13.880;2022-10-31T01:24:28;3.60;;;3.30;;
11418;SDS011;32800;44.876;13.880;2022-10-31T01:26:53;3.90;;;3.50;;
11418;SDS011;32800;44.876;13.880;2022-10-31T01:29:19;4.00;;;3.60;;
11418;SDS011;32800;44.876;13.880;2022-10-31T01:31:44;4.35;;;3.95;;
11418;SDS011;32800;44.876;13.880;2022-10-31T01:34:13;4.05;;;3.50;;
11418;SDS011;32800;44.876;13.880;2022-10-31T01:36:40;3.95;;;3.58;;
11418;SDS011;32800;44.876;13.880;2022-10-31T01:39:13;4.07;;;3.78;;
11418;SDS011;32800;44.876;13.880;2022-10-31T01:41:41;3.72;;;3.42;;
11418;SDS011;32800;44.876;13.880;2022-10-31T01:46:47;3.70;;;3.40;;
11418;SDS011;32800;44.876;13.880;2022-10-31T01:52:14;3.55;;;3.20;;
11418;SDS011;32800;44.876;13.880;2022-10-31T01:54:58;3.80;;;3.40;;
11418;SDS011;32800;44.876;13.880;2022-10-31T01:57:27;3.95;;;3.60;;
11418;SDS011;32800;44.876;13.880;2022-10-31T01:59:55;3.53;;;3.22;;
11418;SDS011;32800;44.876;13.880;2022-10-31T02:02:23;4.00;;;3.50;;
11418;SDS011;32800;44.876;13.880;2022-10-31T02:04:50;3.72;;;3.42;;
11418;SDS011;32800;44.876;13.880;2022-10-31T02:07:23;3.60;;;3.30;;
11418;SDS011;32800;44.876;13.880;2022-10-31T02:09:50;6.22;;;3.65;;
11418;SDS011;32800;44.876;13.880;2022-10-31T02:12:16;3.92;;;3.53;;
11418;SDS011;32800;44.876;13.880;2022-10-31T02:14:42;4.30;;;3.58;;
11418;SDS011;32800;44.876;13.880;2022-10-31T02:17:08;5.10;;;3.77;;
11418;SDS011;32800;44.876;13.880;2022-10-31T02:39:12;4.13;;;3.77;;
11418;SDS011;32800;44.876;13.880;2022-10-31T02:44:26;3.47;;;3.08;;
11418;SDS011;32800;44.876;13.880;2022-10-31T02:47:01;4.10;;;3.50;;
11418;SDS011;32800;44.876;13.880;2022-10-31T02:49:31;3.87;;;3.43;;
11418;SDS011;32800;44.876;13.880;2022-10-31T02:51:59;3.57;;;3.23;;
11418;SDS011;32800;44.876;13.880;2022-10-31T02:54:26;3.37;;;3.07;;
11418;SDS011;32800;44.876;13.880;2022-10-31T02:57:01;3.50;;;3.20;;
11418;SDS011;32800;44.876;13.880;2022-10-31T02:59:29;3.43;;;3.13;;
11418;SDS011;32800;44.876;13.880;2022-10-31T03:05:32;3.50;;;3.20;;
11418;SDS011;32800;44.876;13.880;2022-10-31T03:08:19;3.63;;;3.20;;
11418;SDS011;32800;44.876;13.880;2022-10-31T03:13:35;3.58;;;3.28;;
11418;SDS011;32800;44.876;13.880;2022-10-31T03:16:11;4.10;;;3.70;;
11418;SDS011;32800;44.876;13.880;2022-10-31T03:21:30;4.30;;;3.25;;
11418;SDS011;32800;44.876;13.880;2022-10-31T03:24:01;3.97;;;3.60;;
11418;SDS011;32800;44.876;13.880;2022-10-31T03:26:27;3.70;;;3.40;;
11418;SDS011;32800;44.876;13.880;2022-10-31T03:28:54;3.70;;;3.17;;
11418;SDS011;32800;44.876;13.880;2022-10-31T03:31:31;3.17;;;2.90;;
11418;SDS011;32800;44.876;13.880;2022-10-31T03:33:59;3.30;;;3.00;;
11418;SDS011;32800;44.876;13.880;2022-10-31T03:36:26;4.00;;;3.33;;
11418;SDS011;32800;44.876;13.880;2022-10-31T03:38:52;3.40;;;3.10;;
11418;SDS011;32800;44.876;13.880;2022-10-31T03:41:21;4.03;;;3.20;;
11418;SDS011;32800;44.876;13.880;2022-10-31T03:43:52;3.67;;;3.05;;
11418;SDS011;32800;44.876;13.880;2022-10-31T03:46:26;3.33;;;3.03;;
11418;SDS011;32800;44.876;13.880;2022-10-31T03:48:52;3.28;;;2.97;;
11418;SDS011;32800;44.876;13.880;2022-10-31T03:51:32;3.60;;;3.30;;
11418;SDS011;32800;44.876;13.880;2022-10-31T03:56:32;3.30;;;3.00;;
11418;SDS011;32800;44.876;13.880;2022-10-31T03:59:05;3.47;;;3.13;;
11418;SDS011;32800;44.876;13.880;2022-10-31T04:01:41;2.90;;;2.70;;
11418;SDS011;32800;44.876;13.880;2022-10-31T04:04:10;3.53;;;3.22;;
11418;SDS011;32800;44.876;13.880;2022-10-31T04:06:36;3.60;;;3.30;;
11418;SDS011;32800;44.876;13.880;2022-10-31T04:09:03;3.30;;;3.00;;
11418;SDS011;32800;44.876;13.880;2022-10-31T04:11:31;3.60;;;3.30;;
11418;SDS011;32800;44.876;13.880;2022-10-31T04:13:59;3.80;;;2.80;;
11418;SDS011;32800;44.876;13.880;2022-10-31T04:16:26;3.23;;;2.93;;
11418;SDS011;32800;44.876;13.880;2022-10-31T04:18:51;3.10;;;2.80;;
11418;SDS011;32800;44.876;13.880;2022-10-31T04:21:17;3.10;;;2.80;;
11418;SDS011;32800;44.876;13.880;2022-10-31T04:23:42;3.27;;;2.97;;
11418;SDS011;32800;44.876;13.880;2022-10-31T04:26:10;3.22;;;2.95;;
11418;SDS011;32800;44.876;13.880;2022-10-31T04:28:36;3.40;;;3.10;;
11418;SDS011;32800;44.876;13.880;2022-10-31T04:31:02;3.27;;;2.93;;
11418;SDS011;32800;44.876;13.880;2022-10-31T04:33:27;3.13;;;2.87;;
11418;SDS011;32800;44.876;13.880;2022-10-31T04:35:53;3.38;;;3.08;;
11418;SDS011;32800;44.876;13.880;2022-10-31T04:38:18;2.90;;;2.60;;
11418;SDS011;32800;44.876;13.880;2022-10-31T04:40:44;3.40;;;3.10;;
11418;SDS011;32800;44.876;13.880;2022-10-31T04:43:10;3.27;;;2.97;;
11418;SDS011;32800;44.876;13.880;2022-10-31T04:45:36;2.80;;;2.60;;
11418;SDS011;32800;44.876;13.880;2022-10-31T04:48:02;3.50;;;3.20;;
11418;SDS011;32800;44.876;13.880;2022-10-31T04:50:28;3.27;;;2.97;;
11418;SDS011;32800;44.876;13.880;2022-10-31T04:52:53;3.60;;;3.28;;
11418;SDS011;32800;44.876;13.880;2022-10-31T04:55:19;3.20;;;2.90;;
11418;SDS011;32800;44.876;13.880;2022-10-31T04:57:45;3.13;;;2.83;;
11418;SDS011;32800;44.876;13.880;2022-10-31T05:00:12;5.57;;;3.07;;
11418;SDS011;32800;44.876;13.880;2022-10-31T05:02:52;3.20;;;2.90;;
11418;SDS011;32800;44.876;13.880;2022-10-31T05:05:19;3.17;;;2.83;;
11418;SDS011;32800;44.876;13.880;2022-10-31T05:07:47;3.00;;;2.80;;
11418;SDS011;32800;44.876;13.880;2022-10-31T05:10:14;3.10;;;2.80;;
11418;SDS011;32800;44.876;13.880;2022-10-31T05:15:20;2.97;;;2.78;;
11418;SDS011;32800;44.876;13.880;2022-10-31T05:17:46;3.20;;;2.90;;
11418;SDS011;32800;44.876;13.880;2022-10-31T05:20:12;3.93;;;3.03;;
11418;SDS011;32800;44.876;13.880;2022-10-31T05:22:46;4.70;;;2.73;;
11418;SDS011;32800;44.876;13.880;2022-10-31T05:25:13;3.20;;;2.90;;
11418;SDS011;32800;44.876;13.880;2022-10-31T05:27:43;3.10;;;2.80;;
11418;SDS011;32800;44.876;13.880;2022-10-31T05:30:10;3.13;;;2.83;;
11418;SDS011;32800;44.876;13.880;2022-10-31T05:32:41;3.13;;;2.83;;
11418;SDS011;32800;44.876;13.880;2022-10-31T05:35:15;3.03;;;2.77;;
11418;SDS011;32800;44.876;13.880;2022-10-31T05:37:41;2.63;;;2.43;;
11418;SDS011;32800;44.876;13.880;2022-10-31T05:40:08;3.10;;;2.80;;
11418;SDS011;32800;44.876;13.880;2022-10-31T05:42:35;3.25;;;2.97;;
11418;SDS011;32800;44.876;13.880;2022-10-31T05:45:00;2.92;;;2.72;;
11418;SDS011;32800;44.876;13.880;2022-10-31T05:47:26;2.85;;;2.65;;
11418;SDS011;32800;44.876;13.880;2022-10-31T05:49:52;3.07;;;2.63;;
11418;SDS011;32800;44.876;13.880;2022-10-31T05:52:17;3.10;;;2.80;;
11418;SDS011;32800;44.876;13.880;2022-10-31T05:54:43;2.90;;;2.70;;
11418;SDS011;32800;44.876;13.880;2022-10-31T05:57:08;2.90;;;2.70;;
11418;SDS011;32800;44.876;13.880;2022-10-31T05:59:34;2.70;;;2.50;;
11418;SDS011;32800;44.876;13.880;2022-10-31T06:02:00;2.90;;;2.70;;
11418;SDS011;32800;44.876;13.880;2022-10-31T06:04:25;3.47;;;2.70;;
11418;SDS011;32800;44.876;13.880;2022-10-31T06:06:51;2.60;;;2.40;;
11418;SDS011;32800;44.876;13.880;2022-10-31T06:09:16;3.10;;;2.80;;
11418;SDS011;32800;44.876;13.880;2022-10-31T06:11:42;3.10;;;2.80;;
11418;SDS011;32800;44.876;13.880;2022-10-31T06:14:07;3.30;;;3.00;;
11418;SDS011;32800;44.876;13.880;2022-10-31T06:16:33;3.83;;;3.40;;
11418;SDS011;32800;44.876;13.880;2022-10-31T06:18:58;4.50;;;4.10;;
11418;SDS011;32800;44.876;13.880;2022-10-31T06:21:24;9.73;;;5.60;;
11418;SDS011;32800;44.876;13.880;2022-10-31T06:23:49;10.13;;;5.03;;
11418;SDS011;32800;44.876;13.880;2022-10-31T06:26:15;8.13;;;5.20;;
11418;SDS011;32800;44.876;13.880;2022-10-31T06:28:40;8.50;;;5.83;;
11418;SDS011;32800;44.876;13.880;2022-10-31T06:31:06;5.57;;;4.97;;
11418;SDS011;32800;44.876;13.880;2022-10-31T06:33:32;8.48;;;4.97;;
11418;SDS011;32800;44.876;13.880;2022-10-31T06:35:58;7.67;;;5.30;;
11418;SDS011;32800;44.876;13.880;2022-10-31T06:38:24;7.83;;;5.70;;
11418;SDS011;32800;44.876;13.880;2022-10-31T06:40:51;7.00;;;5.63;;
11418;SDS011;32800;44.876;13.880;2022-10-31T06:43:16;6.25;;;5.50;;
11418;SDS011;32800;44.876;13.880;2022-10-31T06:45:42;7.32;;;5.80;;
11418;SDS011;32800;44.876;13.880;2022-10-31T06:48:07;6.87;;;6.17;;
11418;SDS011;32800;44.876;13.880;2022-10-31T06:50:33;7.97;;;5.60;;
11418;SDS011;32800;44.876;13.880;2022-10-31T06:52:58;7.43;;;6.23;;
11418;SDS011;32800;44.876;13.880;2022-10-31T06:55:25;6.03;;;5.43;;
11418;SDS011;32800;44.876;13.880;2022-10-31T07:00:20;7.30;;;5.87;;
11418;SDS011;32800;44.876;13.880;2022-10-31T07:02:56;7.82;;;5.47;;
11418;SDS011;32800;44.876;13.880;2022-10-31T07:05:22;7.43;;;5.85;;
11418;SDS011;32800;44.876;13.880;2022-10-31T07:07:52;7.87;;;5.37;;
11418;SDS011;32800;44.876;13.880;2022-10-31T07:10:19;6.47;;;4.95;;
11418;SDS011;32800;44.876;13.880;2022-10-31T07:12:44;6.65;;;5.43;;
11418;SDS011;32800;44.876;13.880;2022-10-31T07:15:10;6.13;;;5.27;;
11418;SDS011;32800;44.876;13.880;2022-10-31T07:17:35;7.75;;;5.28;;
11418;SDS011;32800;44.876;13.880;2022-10-31T07:20:01;7.55;;;5.55;;
11418;SDS011;32800;44.876;13.880;2022-10-31T07:22:36;7.00;;;5.78;;
11418;SDS011;32800;44.876;13.880;2022-10-31T07:25:01;7.47;;;5.47;;
11418;SDS011;32800;44.876;13.880;2022-10-31T07:27:27;5.47;;;4.93;;
11418;SDS011;32800;44.876;13.880;2022-10-31T07:29:53;6.78;;;4.93;;
11418;SDS011;32800;44.876;13.880;2022-10-31T07:32:18;8.45;;;5.10;;
11418;SDS011;32800;44.876;13.880;2022-10-31T07:34:44;6.97;;;5.18;;
11418;SDS011;32800;44.876;13.880;2022-10-31T07:37:09;7.03;;;5.20;;
11418;SDS011;32800;44.876;13.880;2022-10-31T07:39:34;8.00;;;5.20;;
11418;SDS011;32800;44.876;13.880;2022-10-31T07:42:00;7.00;;;5.40;;
11418;SDS011;32800;44.876;13.880;2022-10-31T07:44:26;7.68;;;5.03;;
11418;SDS011;32800;44.876;13.880;2022-10-31T07:46:51;10.57;;;5.45;;
11418;SDS011;32800;44.876;13.880;2022-10-31T07:49:17;8.20;;;4.90;;
11418;SDS011;32800;44.876;13.880;2022-10-31T07:51:42;9.88;;;4.82;;
11418;SDS011;32800;44.876;13.880;2022-10-31T07:54:08;7.30;;;5.20;;
11418;SDS011;32800;44.876;13.880;2022-10-31T07:56:33;6.88;;;4.70;;
11418;SDS011;32800;44.876;13.880;2022-10-31T07:58:59;8.10;;;4.78;;
11418;SDS011;32800;44.876;13.880;2022-10-31T08:01:24;7.15;;;4.95;;
11418;SDS011;32800;44.876;13.880;2022-10-31T08:03:50;9.60;;;4.82;;
11418;SDS011;32800;44.876;13.880;2022-10-31T08:06:15;6.80;;;4.70;;
11418;SDS011;32800;44.876;13.880;2022-10-31T08:08:41;7.10;;;4.45;;
11418;SDS011;32800;44.876;13.880;2022-10-31T08:11:06;8.38;;;4.82;;
11418;SDS011;32800;44.876;13.880;2022-10-31T08:13:32;6.97;;;4.47;;
11418;SDS011;32800;44.876;13.880;2022-10-31T08:15:57;5.18;;;4.40;;
11418;SDS011;32800;44.876;13.880;2022-10-31T08:18:28;9.50;;;4.72;;
11418;SDS011;32800;44.876;13.880;2022-10-31T08:20:54;6.15;;;4.38;;
11418;SDS011;32800;44.876;13.880;2022-10-31T08:23:19;4.85;;;4.15;;
11418;SDS011;32800;44.876;13.880;2022-10-31T08:25:45;6.75;;;4.57;;
11418;SDS011;32800;44.876;13.880;2022-10-31T08:28:12;6.95;;;4.20;;
11418;SDS011;32800;44.876;13.880;2022-10-31T08:30:39;10.75;;;4.78;;
11418;SDS011;32800;44.876;13.880;2022-10-31T08:33:12;5.75;;;4.13;;
11418;SDS011;32800;44.876;13.880;2022-10-31T08:35:39;6.15;;;4.20;;
11418;SDS011;32800;44.876;13.880;2022-10-31T08:38:05;5.38;;;4.03;;
11418;SDS011;32800;44.876;13.880;2022-10-31T08:40:32;5.15;;;4.07;;
11418;SDS011;32800;44.876;13.880;2022-10-31T08:43:01;5.18;;;3.88;;
11418;SDS011;32800;44.876;13.880;2022-10-31T08:45:28;6.40;;;4.32;;
11418;SDS011;32800;44.876;13.880;2022-10-31T08:47:59;7.22;;;4.03;;
11418;SDS011;32800;44.876;13.880;2022-10-31T08:50:25;5.72;;;3.92;;
11418;SDS011;32800;44.876;13.880;2022-10-31T08:52:51;6.65;;;4.03;;
11418;SDS011;32800;44.876;13.880;2022-10-31T08:55:17;5.68;;;3.92;;
11418;SDS011;32800;44.876;13.880;2022-10-31T08:57:42;6.43;;;4.00;;
11418;SDS011;32800;44.876;13.880;2022-10-31T09:00:08;6.47;;;4.00;;
11418;SDS011;32800;44.876;13.880;2022-10-31T09:02:34;5.20;;;3.90;;
11418;SDS011;32800;44.876;13.880;2022-10-31T09:04:59;7.18;;;4.15;;
11418;SDS011;32800;44.876;13.880;2022-10-31T09:07:25;9.68;;;4.40;;
11418;SDS011;32800;44.876;13.880;2022-10-31T09:09:51;9.32;;;3.85;;
11418;SDS011;32800;44.876;13.880;2022-10-31T09:12:16;5.63;;;3.92;;
11418;SDS011;32800;44.876;13.880;2022-10-31T09:14:43;6.60;;;4.05;;
11418;SDS011;32800;44.876;13.880;2022-10-31T09:17:08;8.15;;;4.20;;
11418;SDS011;32800;44.876;13.880;2022-10-31T09:19:34;9.05;;;4.05;;
11418;SDS011;32800;44.876;13.880;2022-10-31T09:22:00;5.28;;;3.70;;
11418;SDS011;32800;44.876;13.880;2022-10-31T09:24:26;10.15;;;4.20;;
11418;SDS011;32800;44.876;13.880;2022-10-31T09:26:51;7.97;;;4.00;;
11418;SDS011;32800;44.876;13.880;2022-10-31T09:29:17;5.32;;;3.65;;
11418;SDS011;32800;44.876;13.880;2022-10-31T09:31:43;8.15;;;4.10;;
11418;SDS011;32800;44.876;13.880;2022-10-31T09:34:08;7.13;;;3.80;;
11418;SDS011;32800;44.876;13.880;2022-10-31T09:36:34;6.68;;;3.70;;
11418;SDS011;32800;44.876;13.880;2022-10-31T09:38:59;6.68;;;3.88;;
11418;SDS011;32800;44.876;13.880;2022-10-31T09:44:18;6.15;;;3.70;;
11418;SDS011;32800;44.876;13.880;2022-10-31T09:47:27;6.45;;;3.83;;
11418;SDS011;32800;44.876;13.880;2022-10-31T09:49:58;5.28;;;3.90;;
11418;SDS011;32800;44.876;13.880;2022-10-31T09:52:33;8.25;;;4.43;;
11418;SDS011;32800;44.876;13.880;2022-10-31T09:55:04;9.70;;;4.45;;
11418;SDS011;32800;44.876;13.880;2022-10-31T09:57:43;8.00;;;4.35;;
11418;SDS011;32800;44.876;13.880;2022-10-31T10:00:14;6.70;;;4.40;;
11418;SDS011;32800;44.876;13.880;2022-10-31T10:05:46;7.22;;;4.38;;
11418;SDS011;32800;44.876;13.880;2022-10-31T10:08:20;6.85;;;4.05;;
11418;SDS011;32800;44.876;13.880;2022-10-31T10:10:57;9.00;;;4.60;;
11418;SDS011;32800;44.876;13.880;2022-10-31T10:29:50;8.00;;;4.30;;
11418;SDS011;32800;44.876;13.880;2022-10-31T10:32:27;6.18;;;4.13;;
11418;SDS011;32800;44.876;13.880;2022-10-31T10:35:29;6.70;;;3.80;;
11418;SDS011;32800;44.876;13.880;2022-10-31T10:41:04;7.07;;;4.40;;
11418;SDS011;32800;44.876;13.880;2022-10-31T10:43:34;6.32;;;4.35;;
11418;SDS011;32800;44.876;13.880;2022-10-31T11:02:49;5.13;;;3.70;;
11418;SDS011;32800;44.876;13.880;2022-10-31T11:05:20;7.07;;;4.10;;
11418;SDS011;32800;44.876;13.880;2022-10-31T11:07:49;7.93;;;3.80;;
11418;SDS011;32800;44.876;13.880;2022-10-31T11:10:15;5.25;;;3.80;;
11418;SDS011;32800;44.876;13.880;2022-10-31T11:12:42;6.65;;;3.75;;
11418;SDS011;32800;44.876;13.880;2022-10-31T11:15:22;7.47;;;4.07;;
11418;SDS011;32800;44.876;13.880;2022-10-31T11:17:49;6.18;;;4.20;;
11418;SDS011;32800;44.876;13.880;2022-10-31T11:22:43;7.20;;;4.30;;
11418;SDS011;32800;44.876;13.880;2022-10-31T11:27:44;6.05;;;3.92;;
11418;SDS011;32800;44.876;13.880;2022-10-31T11:30:12;6.32;;;4.57;;
11418;SDS011;32800;44.876;13.880;2022-10-31T11:32:39;7.88;;;4.68;;
11418;SDS011;32800;44.876;13.880;2022-10-31T11:35:09;9.90;;;4.60;;
11418;SDS011;32800;44.876;13.880;2022-10-31T11:37:39;6.47;;;4.07;;
11418;SDS011;32800;44.876;13.880;2022-10-31T11:40:14;9.13;;;4.93;;
11418;SDS011;32800;44.876;13.880;2022-10-31T11:42:42;12.15;;;5.00;;
11418;SDS011;32800;44.876;13.880;2022-10-31T11:45:30;7.10;;;4.30;;
11418;SDS011;32800;44.876;13.880;2022-10-31T11:47:55;6.57;;;4.40;;
11418;SDS011;32800;44.876;13.880;2022-10-31T11:50:22;8.02;;;4.90;;
11418;SDS011;32800;44.876;13.880;2022-10-31T11:52:50;5.60;;;4.72;;
11418;SDS011;32800;44.876;13.880;2022-10-31T11:55:25;7.40;;;4.80;;
11418;SDS011;32800;44.876;13.880;2022-10-31T11:57:56;7.05;;;4.78;;
11418;SDS011;32800;44.876;13.880;2022-10-31T12:00:26;7.75;;;4.70;;
11418;SDS011;32800;44.876;13.880;2022-10-31T12:03:43;8.25;;;4.95;;
11418;SDS011;32800;44.876;13.880;2022-10-31T12:05:45;7.40;;;4.90;;
11418;SDS011;32800;44.876;13.880;2022-10-31T12:08:14;7.47;;;4.30;;
11418;SDS011;32800;44.876;13.880;2022-10-31T12:16:04;8.77;;;4.53;;
11418;SDS011;32800;44.876;13.880;2022-10-31T12:18:47;6.90;;;4.88;;
11418;SDS011;32800;44.876;13.880;2022-10-31T12:26:48;7.68;;;5.13;;
11418;SDS011;32800;44.876;13.880;2022-10-31T12:32:59;9.43;;;4.85;;
11418;SDS011;32800;44.876;13.880;2022-10-31T12:35:56;8.45;;;4.60;;
11418;SDS011;32800;44.876;13.880;2022-10-31T12:38:42;8.10;;;5.00;;
11418;SDS011;32800;44.876;13.880;2022-10-31T12:41:17;5.90;;;4.30;;
11418;SDS011;32800;44.876;13.880;2022-10-31T12:51:59;9.63;;;4.50;;
11418;SDS011;32800;44.876;13.880;2022-10-31T12:57:36;9.98;;;5.25;;
11418;SDS011;32800;44.876;13.880;2022-10-31T13:00:11;10.05;;;5.22;;
11418;SDS011;32800;44.876;13.880;2022-10-31T13:02:56;8.65;;;5.53;;
11418;SDS011;32800;44.876;13.880;2022-10-31T13:05:43;13.52;;;7.35;;
11418;SDS011;32800;44.876;13.880;2022-10-31T13:08:15;11.85;;;6.80;;
11418;SDS011;32800;44.876;13.880;2022-10-31T13:15:55;20.08;;;8.70;;
11418;SDS011;32800;44.876;13.880;2022-10-31T13:18:35;18.23;;;8.85;;
11418;SDS011;32800;44.876;13.880;2022-10-31T13:21:08;21.67;;;10.07;;
11418;SDS011;32800;44.876;13.880;2022-10-31T13:23:37;18.30;;;9.98;;
11418;SDS011;32800;44.876;13.880;2022-10-31T13:26:12;27.38;;;10.95;;
11418;SDS011;32800;44.876;13.880;2022-10-31T13:31:11;23.02;;;11.18;;
11418;SDS011;32800;44.876;13.880;2022-10-31T13:47:00;28.25;;;12.32;;
11418;SDS011;32800;44.876;13.880;2022-10-31T13:54:41;26.55;;;12.30;;
11418;SDS011;32800;44.876;13.880;2022-10-31T13:59:56;21.80;;;13.50;;
11418;SDS011;32800;44.876;13.880;2022-10-31T14:02:31;23.13;;;12.38;;
11418;SDS011;32800;44.876;13.880;2022-10-31T14:05:00;21.30;;;11.85;;
11418;SDS011;32800;44.876;13.880;2022-10-31T14:07:29;25.20;;;12.25;;
11418;SDS011;32800;44.876;13.880;2022-10-31T14:09:57;27.00;;;12.50;;
11418;SDS011;32800;44.876;13.880;2022-10-31T14:12:43;20.80;;;12.02;;
11418;SDS011;32800;44.876;13.880;2022-10-31T14:15:14;20.17;;;11.25;;
11418;SDS011;32800;44.876;13.880;2022-10-31T14:17:46;23.02;;;11.98;;
11418;SDS011;32800;44.876;13.880;2022-10-31T14:22:39;18.52;;;11.25;;
11418;SDS011;32800;44.876;13.880;2022-10-31T14:27:50;22.90;;;10.95;;
11418;SDS011;32800;44.876;13.880;2022-10-31T14:30:18;17.92;;;10.45;;
11418;SDS011;32800;44.876;13.880;2022-10-31T14:33:29;22.27;;;11.68;;
11418;SDS011;32800;44.876;13.880;2022-10-31T14:36:02;21.95;;;10.57;;
11418;SDS011;32800;44.876;13.880;2022-10-31T14:41:24;19.17;;;10.73;;
11418;SDS011;32800;44.876;13.880;2022-10-31T14:52:13;18.65;;;10.43;;
11418;SDS011;32800;44.876;13.880;2022-10-31T14:54:41;20.70;;;10.52;;
11418;SDS011;32800;44.876;13.880;2022-10-31T15:00:07;17.35;;;10.07;;
11418;SDS011;32800;44.876;13.880;2022-10-31T15:05:05;15.18;;;10.23;;
11418;SDS011;32800;44.876;13.880;2022-10-31T15:07:33;17.80;;;10.38;;
11418;SDS011;32800;44.876;13.880;2022-10-31T15:10:06;19.98;;;9.98;;
11418;SDS011;32800;44.876;13.880;2022-10-31T15:12:45;17.13;;;9.90;;
11418;SDS011;32800;44.876;13.880;2022-10-31T15:15:11;16.85;;;9.70;;
11418;SDS011;32800;44.876;13.880;2022-10-31T15:17:43;16.80;;;10.20;;
11418;SDS011;32800;44.876;13.880;2022-10-31T15:20:11;16.30;;;9.60;;
11418;SDS011;32800;44.876;13.880;2022-10-31T15:22:37;18.02;;;10.25;;
11418;SDS011;32800;44.876;13.880;2022-10-31T15:25:03;16.83;;;10.52;;
11418;SDS011;32800;44.876;13.880;2022-10-31T15:27:29;18.50;;;11.27;;
11418;SDS011;32800;44.876;13.880;2022-10-31T15:29:55;14.95;;;10.13;;
11418;SDS011;32800;44.876;13.880;2022-10-31T15:32:25;17.05;;;10.93;;
11418;SDS011;32800;44.876;13.880;2022-10-31T15:34:52;14.13;;;10.25;;
11418;SDS011;32800;44.876;13.880;2022-10-31T15:37:19;17.13;;;11.00;;
11418;SDS011;32800;44.876;13.880;2022-10-31T15:39:47;17.63;;;10.25;;
11418;SDS011;32800;44.876;13.880;2022-10-31T15:42:18;15.23;;;10.52;;
11418;SDS011;32800;44.876;13.880;2022-10-31T15:44:45;16.52;;;11.20;;
11418;SDS011;32800;44.876;13.880;2022-10-31T15:47:15;21.17;;;11.57;;
11418;SDS011;32800;44.876;13.880;2022-10-31T15:49:52;18.05;;;12.82;;
11418;SDS011;32800;44.876;13.880;2022-10-31T15:55:16;20.88;;;13.88;;
11418;SDS011;32800;44.876;13.880;2022-10-31T15:57:49;19.98;;;13.23;;
11418;SDS011;32800;44.876;13.880;2022-10-31T16:00:27;19.27;;;12.80;;
11418;SDS011;32800;44.876;13.880;2022-10-31T16:03:03;20.85;;;13.00;;
11418;SDS011;32800;44.876;13.880;2022-10-31T16:05:48;20.23;;;12.88;;
11418;SDS011;32800;44.876;13.880;2022-10-31T16:08:25;17.17;;;12.32;;
11418;SDS011;32800;44.876;13.880;2022-10-31T16:10:53;17.50;;;11.50;;
11418;SDS011;32800;44.876;13.880;2022-10-31T16:13:21;16.05;;;11.65;;
11418;SDS011;32800;44.876;13.880;2022-10-31T16:15:56;17.88;;;11.95;;
11418;SDS011;32800;44.876;13.880;2022-10-31T16:18:27;16.10;;;10.77;;
11418;SDS011;32800;44.876;13.880;2022-10-31T16:20:53;16.15;;;11.02;;
11418;SDS011;32800;44.876;13.880;2022-10-31T16:23:20;17.83;;;11.13;;
11418;SDS011;32800;44.876;13.880;2022-10-31T16:25:48;14.88;;;10.35;;
11418;SDS011;32800;44.876;13.880;2022-10-31T16:30:44;16.02;;;9.82;;
11418;SDS011;32800;44.876;13.880;2022-10-31T16:33:21;14.52;;;10.77;;
11418;SDS011;32800;44.876;13.880;2022-10-31T16:35:53;13.23;;;9.80;;
11418;SDS011;32800;44.876;13.880;2022-10-31T16:38:19;11.88;;;9.45;;
11418;SDS011;32800;44.876;13.880;2022-10-31T16:40:45;15.50;;;9.70;;
11418;SDS011;32800;44.876;13.880;2022-10-31T16:43:12;14.35;;;9.40;;
11418;SDS011;32800;44.876;13.880;2022-10-31T16:45:42;13.35;;;9.82;;
11418;SDS011;32800;44.876;13.880;2022-10-31T16:48:13;13.05;;;8.55;;
11418;SDS011;32800;44.876;13.880;2022-10-31T16:50:44;15.05;;;9.15;;
11418;SDS011;32800;44.876;13.880;2022-10-31T16:53:12;13.27;;;9.27;;
11418;SDS011;32800;44.876;13.880;2022-10-31T16:58:25;12.55;;;8.77;;
11418;SDS011;32800;44.876;13.880;2022-10-31T17:00:54;13.27;;;8.90;;
11418;SDS011;32800;44.876;13.880;2022-10-31T17:03:20;12.88;;;8.93;;
11418;SDS011;32800;44.876;13.880;2022-10-31T17:05:46;12.52;;;8.90;;
11418;SDS011;32800;44.876;13.880;2022-10-31T17:08:12;11.27;;;8.90;;
11418;SDS011;32800;44.876;13.880;2022-10-31T17:10:38;13.80;;;8.88;;
11418;SDS011;32800;44.876;13.880;2022-10-31T17:13:04;12.50;;;8.65;;
11418;SDS011;32800;44.876;13.880;2022-10-31T17:15:38;11.68;;;8.73;;
11418;SDS011;32800;44.876;13.880;2022-10-31T17:18:08;12.55;;;8.68;;
11418;SDS011;32800;44.876;13.880;2022-10-31T17:20:37;10.77;;;8.15;;
11418;SDS011;32800;44.876;13.880;2022-10-31T17:23:03;11.02;;;7.90;;
11418;SDS011;32800;44.876;13.880;2022-10-31T17:25:29;10.20;;;7.90;;
11418;SDS011;32800;44.876;13.880;2022-10-31T17:27:58;10.40;;;8.10;;
11418;SDS011;32800;44.876;13.880;2022-10-31T17:30:24;9.77;;;7.18;;
11418;SDS011;32800;44.876;13.880;2022-10-31T17:32:50;10.48;;;7.70;;
11418;SDS011;32800;44.876;13.880;2022-10-31T17:35:16;11.15;;;8.15;;